FNA weather

Lungi International Airport
Freetown, Northern Province, Sierra Leone

Public forecast

Using degrees Celsius for public forecast. Weather courtesy of forecast.io.

Current aviation weather report (METAR) for Lungi International Airport

Retrieved 2020/02/20 13:00 UTC (54 minutes ago):

GFLL 201300Z 32008KT 6000 HZ NSC 28/25 Q1008

Aviation forecast (TAF) for Lungi International Airport

Forecast is more than 12 hours old.

Retrieved 2020/01/25 12:00 UTC (26 days ago):

TAF GFLL 251100Z 2512/2618 33008KT 6000 HZ SCT012 BECMG 2513/2515 06010KT FEW014 PROB30 TEMPO 2517/2519 12006KT 8000 -HZ NSC TEMPO 2522/2602 09004KT PROB40 TEMPO 2504/2508 VRB02KT 4000 BR SCT012